sensor_id;sensor_type;location;lat;lon;timestamp;pressure;altitude;pressure_sealevel;temperature;humidity
20860;BME280;10590;48.154;11.514;2023-12-28T00:03:21;95903.13;;;2.82;63.98
20860;BME280;10590;48.154;11.514;2023-12-28T00:08:43;95923.19;;;2.98;63.75
20860;BME280;10590;48.154;11.514;2023-12-28T00:14:06;95915.34;;;3.24;63.49
20860;BME280;10590;48.154;11.514;2023-12-28T00:19:28;95915.34;;;3.24;62.40
20860;BME280;10590;48.154;11.514;2023-12-28T00:24:49;95918.00;;;3.39;60.19
20860;BME280;10590;48.154;11.514;2023-12-28T00:30:13;95905.13;;;3.53;58.52
20860;BME280;10590;48.154;11.514;2023-12-28T00:35:37;95901.19;;;3.65;58.74
20860;BME280;10590;48.154;11.514;2023-12-28T00:40:59;95904.34;;;3.47;59.02
20860;BME280;10590;48.154;11.514;2023-12-28T00:46:22;95912.19;;;3.32;59.92
20860;BME280;10590;48.154;11.514;2023-12-28T00:51:43;95928.22;;;3.00;61.44
20860;BME280;10590;48.154;11.514;2023-12-28T00:57:05;95918.16;;;2.86;61.46
20860;BME280;10590;48.154;11.514;2023-12-28T01:02:28;95913.69;;;2.92;61.74
20860;BME280;10590;48.154;11.514;2023-12-28T01:07:49;95925.28;;;2.86;63.30
20860;BME280;10590;48.154;11.514;2023-12-28T01:13:11;95936.41;;;2.46;63.93
20860;BME280;10590;48.154;11.514;2023-12-28T01:18:34;95936.72;;;2.60;64.99
20860;BME280;10590;48.154;11.514;2023-12-28T01:23:56;95957.75;;;2.49;64.48
20860;BME280;10590;48.154;11.514;2023-12-28T01:29:17;95963.03;;;2.49;64.66
20860;BME280;10590;48.154;11.514;2023-12-28T01:34:41;95960.91;;;2.04;64.76
20860;BME280;10590;48.154;11.514;2023-12-28T01:40:04;95963.22;;;1.96;65.09
20860;BME280;10590;48.154;11.514;2023-12-28T01:45:26;95959.75;;;1.90;65.69
20860;BME280;10590;48.154;11.514;2023-12-28T01:50:49;95965.59;;;1.70;66.17
20860;BME280;10590;48.154;11.514;2023-12-28T01:56:11;95950.25;;;1.89;67.23
20860;BME280;10590;48.154;11.514;2023-12-28T02:01:33;95948.69;;;1.88;66.62
20860;BME280;10590;48.154;11.514;2023-12-28T02:06:59;95946.13;;;1.98;67.79
20860;BME280;10590;48.154;11.514;2023-12-28T02:12:21;95951.06;;;2.32;66.32
20860;BME280;10590;48.154;11.514;2023-12-28T02:17:47;95965.34;;;2.41;66.01
20860;BME280;10590;48.154;11.514;2023-12-28T02:23:13;95957.03;;;2.17;65.73
20860;BME280;10590;48.154;11.514;2023-12-28T02:28:36;95967.44;;;2.39;66.63
20860;BME280;10590;48.154;11.514;2023-12-28T02:34:04;95960.03;;;2.31;66.93
20860;BME280;10590;48.154;11.514;2023-12-28T02:39:29;95949.47;;;1.88;67.12
20860;BME280;10590;48.154;11.514;2023-12-28T02:44:53;95955.75;;;1.82;68.92
20860;BME280;10590;48.154;11.514;2023-12-28T02:50:15;95950.88;;;1.69;69.46
20860;BME280;10590;48.154;11.514;2023-12-28T02:55:36;95958.00;;;1.42;70.41
20860;BME280;10590;48.154;11.514;2023-12-28T03:00:59;95958.28;;;1.45;68.74
20860;BME280;10590;48.154;11.514;2023-12-28T03:06:21;95956.19;;;1.74;69.20
20860;BME280;10590;48.154;11.514;2023-12-28T03:11:43;95952.25;;;2.09;67.56
20860;BME280;10590;48.154;11.514;2023-12-28T03:17:06;95952.38;;;2.29;65.38
20860;BME280;10590;48.154;11.514;2023-12-28T03:22:27;95950.53;;;2.72;63.65
20860;BME280;10590;48.154;11.514;2023-12-28T03:27:49;95945.38;;;3.07;61.05
20860;BME280;10590;48.154;11.514;2023-12-28T03:33:12;95948.06;;;3.38;58.16
20860;BME280;10590;48.154;11.514;2023-12-28T03:38:33;95932.56;;;3.51;58.89
20860;BME280;10590;48.154;11.514;2023-12-28T03:43:55;95937.59;;;3.73;58.18
20860;BME280;10590;48.154;11.514;2023-12-28T03:49:18;95934.94;;;3.99;55.58
20860;BME280;10590;48.154;11.514;2023-12-28T03:54:40;95929.59;;;4.50;53.87
20860;BME280;10590;48.154;11.514;2023-12-28T04:00:02;95943.81;;;4.69;53.46
20860;BME280;10590;48.154;11.514;2023-12-28T04:05:26;95951.72;;;4.79;53.01
20860;BME280;10590;48.154;11.514;2023-12-28T04:10:48;95955.44;;;4.68;52.75
20860;BME280;10590;48.154;11.514;2023-12-28T04:16:12;95959.38;;;4.75;53.15
20860;BME280;10590;48.154;11.514;2023-12-28T04:21:35;95966.50;;;4.85;52.68
20860;BME280;10590;48.154;11.514;2023-12-28T04:26:56;95968.31;;;4.95;53.01
20860;BME280;10590;48.154;11.514;2023-12-28T04:32:18;95970.22;;;4.79;51.95
20860;BME280;10590;48.154;11.514;2023-12-28T04:37:41;95966.28;;;4.71;52.47
20860;BME280;10590;48.154;11.514;2023-12-28T04:43:03;95970.19;;;4.84;51.84
20860;BME280;10590;48.154;11.514;2023-12-28T04:48:24;95972.88;;;4.69;52.06
20860;BME280;10590;48.154;11.514;2023-12-28T04:53:48;95974.72;;;4.78;52.62
20860;BME280;10590;48.154;11.514;2023-12-28T04:59:10;95976.34;;;4.64;53.09
20860;BME280;10590;48.154;11.514;2023-12-28T05:04:32;95978.22;;;4.23;53.93
20860;BME280;10590;48.154;11.514;2023-12-28T05:09:55;95977.97;;;4.35;54.22
20860;BME280;10590;48.154;11.514;2023-12-28T05:15:16;95982.47;;;4.34;53.08
20860;BME280;10590;48.154;11.514;2023-12-28T05:20:40;95990.63;;;4.53;53.06
20860;BME280;10590;48.154;11.514;2023-12-28T05:26:03;96002.50;;;4.61;53.14
20860;BME280;10590;48.154;11.514;2023-12-28T05:31:25;96005.19;;;4.45;54.99
20860;BME280;10590;48.154;11.514;2023-12-28T05:36:46;96007.25;;;3.62;55.81
20860;BME280;10590;48.154;11.514;2023-12-28T05:42:09;96001.59;;;3.28;57.87
20860;BME280;10590;48.154;11.514;2023-12-28T05:47:31;96008.41;;;3.19;59.90
20860;BME280;10590;48.154;11.514;2023-12-28T05:52:53;96005.25;;;3.17;57.22
20860;BME280;10590;48.154;11.514;2023-12-28T05:58:16;96006.59;;;3.25;57.68
20860;BME280;10590;48.154;11.514;2023-12-28T06:03:38;96000.53;;;3.24;58.06
20860;BME280;10590;48.154;11.514;2023-12-28T06:08:59;96011.25;;;3.02;59.33
20860;BME280;10590;48.154;11.514;2023-12-28T06:14:25;96004.50;;;3.32;56.52
20860;BME280;10590;48.154;11.514;2023-12-28T06:19:46;96001.91;;;3.42;58.01
20860;BME280;10590;48.154;11.514;2023-12-28T06:25:08;95997.72;;;3.51;57.12
20860;BME280;10590;48.154;11.514;2023-12-28T06:30:33;96003.72;;;3.31;57.58
20860;BME280;10590;48.154;11.514;2023-12-28T06:35:55;95997.22;;;3.69;55.80
20860;BME280;10590;48.154;11.514;2023-12-28T06:41:18;95995.66;;;4.09;54.12
20860;BME280;10590;48.154;11.514;2023-12-28T06:46:41;96000.97;;;4.39;53.63
20860;BME280;10590;48.154;11.514;2023-12-28T06:52:03;95998.81;;;4.62;52.39
20860;BME280;10590;48.154;11.514;2023-12-28T06:57:25;95995.09;;;4.63;52.12
20860;BME280;10590;48.154;11.514;2023-12-28T07:02:48;95999.34;;;4.59;51.99
20860;BME280;10590;48.154;11.514;2023-12-28T07:08:10;95995.13;;;4.58;51.94
20860;BME280;10590;48.154;11.514;2023-12-28T07:13:31;95991.69;;;4.52;52.77
20860;BME280;10590;48.154;11.514;2023-12-28T07:18:54;95986.91;;;4.64;51.60
20860;BME280;10590;48.154;11.514;2023-12-28T07:24:16;95982.84;;;4.92;51.88
20860;BME280;10590;48.154;11.514;2023-12-28T07:29:38;95981.22;;;5.01;51.10
20860;BME280;10590;48.154;11.514;2023-12-28T07:35:01;95992.31;;;5.08;51.47
20860;BME280;10590;48.154;11.514;2023-12-28T07:40:23;95999.16;;;5.15;52.12
20860;BME280;10590;48.154;11.514;2023-12-28T07:45:44;95997.56;;;5.24;52.34
20860;BME280;10590;48.154;11.514;2023-12-28T07:51:07;96005.38;;;4.74;55.09
20860;BME280;10590;48.154;11.514;2023-12-28T07:56:29;96000.19;;;5.19;54.39
20860;BME280;10590;48.154;11.514;2023-12-28T08:01:51;96006.84;;;5.21;53.05
20860;BME280;10590;48.154;11.514;2023-12-28T08:07:14;96010.91;;;5.53;52.38
20860;BME280;10590;48.154;11.514;2023-12-28T08:12:35;96018.72;;;6.22;49.91
20860;BME280;10590;48.154;11.514;2023-12-28T08:17:57;96012.81;;;6.30;50.76
20860;BME280;10590;48.154;11.514;2023-12-28T08:23:20;96016.28;;;7.13;48.98
20860;BME280;10590;48.154;11.514;2023-12-28T08:28:42;96017.81;;;7.80;46.64
20860;BME280;10590;48.154;11.514;2023-12-28T08:34:03;96016.44;;;8.20;45.15
20860;BME280;10590;48.154;11.514;2023-12-28T08:39:27;96028.75;;;9.77;41.56
20860;BME280;10590;48.154;11.514;2023-12-28T08:44:48;96019.78;;;12.38;36.81
20860;BME280;10590;48.154;11.514;2023-12-28T08:50:10;96022.22;;;13.42;35.20
20860;BME280;10590;48.154;11.514;2023-12-28T08:55:33;96021.97;;;12.02;36.39
20860;BME280;10590;48.154;11.514;2023-12-28T09:00:54;96031.72;;;12.50;35.80
20860;BME280;10590;48.154;11.514;2023-12-28T09:06:16;96027.31;;;12.54;34.92
20860;BME280;10590;48.154;11.514;2023-12-28T09:11:39;96030.59;;;11.90;36.00
20860;BME280;10590;48.154;11.514;2023-12-28T09:17:01;96021.47;;;11.91;35.58
20860;BME280;10590;48.154;11.514;2023-12-28T09:22:23;96021.88;;;11.19;37.20
20860;BME280;10590;48.154;11.514;2023-12-28T09:27:46;96019.63;;;11.04;38.00
20860;BME280;10590;48.154;11.514;2023-12-28T09:33:07;96015.00;;;10.87;37.87
20860;BME280;10590;48.154;11.514;2023-12-28T09:38:29;96006.44;;;11.47;37.02
20860;BME280;10590;48.154;11.514;2023-12-28T09:43:54;95998.25;;;11.43;37.10
20860;BME280;10590;48.154;11.514;2023-12-28T09:49:16;96009.31;;;11.68;35.80
20860;BME280;10590;48.154;11.514;2023-12-28T09:54:38;95997.41;;;11.91;35.58
20860;BME280;10590;48.154;11.514;2023-12-28T10:00:01;96007.88;;;12.83;34.50
20860;BME280;10590;48.154;11.514;2023-12-28T10:05:24;96004.03;;;13.48;33.69
20860;BME280;10590;48.154;11.514;2023-12-28T10:10:45;96006.19;;;13.84;33.13
20860;BME280;10590;48.154;11.514;2023-12-28T10:16:12;96009.97;;;12.68;33.79
20860;BME280;10590;48.154;11.514;2023-12-28T10:21:34;96009.78;;;13.67;32.23
20860;BME280;10590;48.154;11.514;2023-12-28T10:26:57;95993.22;;;13.94;32.08
20860;BME280;10590;48.154;11.514;2023-12-28T10:32:20;96004.47;;;13.29;33.89
20860;BME280;10590;48.154;11.514;2023-12-28T10:37:43;95990.47;;;13.15;33.61
20860;BME280;10590;48.154;11.514;2023-12-28T10:43:06;95982.16;;;12.35;34.85
20860;BME280;10590;48.154;11.514;2023-12-28T10:48:33;95985.06;;;12.76;34.93
20860;BME280;10590;48.154;11.514;2023-12-28T10:54:06;95985.44;;;12.58;35.27
20860;BME280;10590;48.154;11.514;2023-12-28T10:59:37;95978.06;;;12.46;34.95
20860;BME280;10590;48.154;11.514;2023-12-28T11:05:04;95973.06;;;12.19;35.36
20860;BME280;10590;48.154;11.514;2023-12-28T11:10:26;95968.47;;;12.28;35.00
20860;BME280;10590;48.154;11.514;2023-12-28T11:15:51;95960.06;;;12.64;34.83
20860;BME280;10590;48.154;11.514;2023-12-28T11:21:15;95958.50;;;12.54;34.84
20860;BME280;10590;48.154;11.514;2023-12-28T11:26:38;95960.72;;;12.52;35.44
20860;BME280;10590;48.154;11.514;2023-12-28T11:32:00;95952.06;;;12.55;35.39
20860;BME280;10590;48.154;11.514;2023-12-28T11:37:23;95939.31;;;12.52;35.92
20860;BME280;10590;48.154;11.514;2023-12-28T11:42:49;95925.34;;;12.38;36.04
20860;BME280;10590;48.154;11.514;2023-12-28T11:48:24;95928.81;;;12.76;35.22
20860;BME280;10590;48.154;11.514;2023-12-28T11:53:48;95929.22;;;12.49;35.90
20860;BME280;10590;48.154;11.514;2023-12-28T11:59:10;95914.09;;;12.53;36.85
20860;BME280;10590;48.154;11.514;2023-12-28T12:04:34;95926.44;;;12.37;35.68
20860;BME280;10590;48.154;11.514;2023-12-28T12:09:58;95933.56;;;12.16;36.63
20860;BME280;10590;48.154;11.514;2023-12-28T12:15:20;95923.63;;;12.07;36.49
20860;BME280;10590;48.154;11.514;2023-12-28T12:20:41;95922.06;;;11.98;36.29
20860;BME280;10590;48.154;11.514;2023-12-28T12:26:06;95916.09;;;11.84;36.64
20860;BME280;10590;48.154;11.514;2023-12-28T12:31:28;95912.28;;;11.76;37.17
20860;BME280;10590;48.154;11.514;2023-12-28T12:36:50;95916.22;;;11.70;36.72
20860;BME280;10590;48.154;11.514;2023-12-28T12:42:16;95906.00;;;11.55;37.27
20860;BME280;10590;48.154;11.514;2023-12-28T12:47:39;95905.06;;;11.42;37.27
20860;BME280;10590;48.154;11.514;2023-12-28T12:53:01;95900.34;;;11.47;36.53
20860;BME280;10590;48.154;11.514;2023-12-28T12:58:24;95892.16;;;11.35;37.56
20860;BME280;10590;48.154;11.514;2023-12-28T13:03:47;95895.63;;;11.44;37.70
20860;BME280;10590;48.154;11.514;2023-12-28T13:09:09;95902.53;;;11.45;37.65
20860;BME280;10590;48.154;11.514;2023-12-28T13:14:33;95905.22;;;11.54;38.33
20860;BME280;10590;48.154;11.514;2023-12-28T13:19:55;95901.44;;;11.55;38.22
20860;BME280;10590;48.154;11.514;2023-12-28T13:25:16;95903.31;;;11.46;37.92
20860;BME280;10590;48.154;11.514;2023-12-28T13:30:39;95912.44;;;11.45;39.17
20860;BME280;10590;48.154;11.514;2023-12-28T13:36:01;95906.16;;;11.32;39.29
20860;BME280;10590;48.154;11.514;2023-12-28T13:41:23;95891.00;;;11.19;39.42
20860;BME280;10590;48.154;11.514;2023-12-28T13:46:46;95896.19;;;11.24;40.13
20860;BME280;10590;48.154;11.514;2023-12-28T13:52:09;95901.31;;;10.95;40.91
20860;BME280;10590;48.154;11.514;2023-12-28T13:57:31;95911.56;;;11.10;41.23
20860;BME280;10590;48.154;11.514;2023-12-28T14:02:54;95909.38;;;11.12;41.31
20860;BME280;10590;48.154;11.514;2023-12-28T14:08:16;95911.56;;;11.10;41.62
20860;BME280;10590;48.154;11.514;2023-12-28T14:13:37;95909.38;;;11.12;42.01
20860;BME280;10590;48.154;11.514;2023-12-28T14:19:00;95907.97;;;11.14;42.04
20860;BME280;10590;48.154;11.514;2023-12-28T14:24:23;95912.81;;;11.04;41.84
20860;BME280;10590;48.154;11.514;2023-12-28T14:29:46;95902.28;;;10.99;42.36
20860;BME280;10590;48.154;11.514;2023-12-28T14:35:11;95896.94;;;10.99;42.58
20860;BME280;10590;48.154;11.514;2023-12-28T14:40:33;95899.91;;;10.89;42.60
20860;BME280;10590;48.154;11.514;2023-12-28T14:45:55;95905.69;;;10.82;42.66
20860;BME280;10590;48.154;11.514;2023-12-28T14:51:18;95913.84;;;10.77;43.09
20860;BME280;10590;48.154;11.514;2023-12-28T14:56:40;95907.09;;;10.79;42.99
20860;BME280;10590;48.154;11.514;2023-12-28T15:02:01;95888.38;;;10.71;42.79
20860;BME280;10590;48.154;11.514;2023-12-28T15:07:24;95907.69;;;10.68;42.74
20860;BME280;10590;48.154;11.514;2023-12-28T15:12:47;95914.56;;;10.60;42.45
20860;BME280;10590;48.154;11.514;2023-12-28T15:18:09;95920.06;;;10.64;41.85
20860;BME280;10590;48.154;11.514;2023-12-28T15:23:33;95926.00;;;10.61;41.39
20860;BME280;10590;48.154;11.514;2023-12-28T15:28:55;95926.59;;;10.49;41.32
20860;BME280;10590;48.154;11.514;2023-12-28T15:34:16;95929.09;;;10.45;41.34
20860;BME280;10590;48.154;11.514;2023-12-28T15:39:40;95910.22;;;10.42;40.92
20860;BME280;10590;48.154;11.514;2023-12-28T15:45:02;95918.53;;;10.40;41.13
20860;BME280;10590;48.154;11.514;2023-12-28T15:50:24;95920.59;;;10.43;40.93
20860;BME280;10590;48.154;11.514;2023-12-28T15:55:47;95919.19;;;10.46;40.39
20860;BME280;10590;48.154;11.514;2023-12-28T16:01:09;95909.13;;;10.43;40.81
20860;BME280;10590;48.154;11.514;2023-12-28T16:06:30;95911.81;;;10.43;40.94
20860;BME280;10590;48.154;11.514;2023-12-28T16:11:54;95901.13;;;10.43;40.60
20860;BME280;10590;48.154;11.514;2023-12-28T16:17:16;95894.94;;;10.34;40.72
20860;BME280;10590;48.154;11.514;2023-12-28T16:22:38;95907.97;;;10.35;40.94
20860;BME280;10590;48.154;11.514;2023-12-28T16:28:01;95906.00;;;10.41;41.05
20860;BME280;10590;48.154;11.514;2023-12-28T16:33:23;95908.03;;;10.44;40.94
20860;BME280;10590;48.154;11.514;2023-12-28T16:38:45;95902.03;;;10.38;41.14
20860;BME280;10590;48.154;11.514;2023-12-28T16:44:08;95909.69;;;10.31;41.38
20860;BME280;10590;48.154;11.514;2023-12-28T16:49:29;95911.56;;;10.31;41.49
20860;BME280;10590;48.154;11.514;2023-12-28T16:54:51;95911.38;;;10.27;41.43
20860;BME280;10590;48.154;11.514;2023-12-28T17:00:15;95906.66;;;10.24;41.95
20860;BME280;10590;48.154;11.514;2023-12-28T17:05:37;95903.50;;;10.22;41.95
20860;BME280;10590;48.154;11.514;2023-12-28T17:11:00;95904.09;;;10.19;42.28
20860;BME280;10590;48.154;11.514;2023-12-28T17:16:24;95904.88;;;10.19;42.01
20860;BME280;10590;48.154;11.514;2023-12-28T17:21:46;95907.84;;;10.18;42.59
20860;BME280;10590;48.154;11.514;2023-12-28T17:27:13;95899.81;;;10.09;42.83
20860;BME280;10590;48.154;11.514;2023-12-28T17:32:38;95894.47;;;10.09;42.60
20860;BME280;10590;48.154;11.514;2023-12-28T17:38:01;95883.81;;;10.09;42.83
20860;BME280;10590;48.154;11.514;2023-12-28T17:43:29;95881.44;;;10.08;43.66
20860;BME280;10590;48.154;11.514;2023-12-28T17:48:59;95892.09;;;10.08;43.52
20860;BME280;10590;48.154;11.514;2023-12-28T17:54:21;95895.09;;;9.84;44.39
20860;BME280;10590;48.154;11.514;2023-12-28T17:59:42;95894.34;;;9.92;44.40
20860;BME280;10590;48.154;11.514;2023-12-28T18:05:06;95894.72;;;9.77;44.79
20860;BME280;10590;48.154;11.514;2023-12-28T18:10:28;95890.38;;;9.81;44.68
20860;BME280;10590;48.154;11.514;2023-12-28T18:15:49;95888.31;;;9.78;44.79
20860;BME280;10590;48.154;11.514;2023-12-28T18:21:12;95875.94;;;9.82;44.83
20860;BME280;10590;48.154;11.514;2023-12-28T18:26:34;95886.97;;;9.67;46.01
20860;BME280;10590;48.154;11.514;2023-12-28T18:31:56;95885.28;;;9.71;46.09
20860;BME280;10590;48.154;11.514;2023-12-28T18:37:20;95877.16;;;9.76;45.87
20860;BME280;10590;48.154;11.514;2023-12-28T18:42:42;95871.97;;;9.71;46.13
20860;BME280;10590;48.154;11.514;2023-12-28T18:48:05;95859.47;;;9.80;46.36
20860;BME280;10590;48.154;11.514;2023-12-28T18:53:33;95854.75;;;9.77;45.95
20860;BME280;10590;48.154;11.514;2023-12-28T18:58:55;95853.84;;;9.81;45.92
20860;BME280;10590;48.154;11.514;2023-12-28T19:04:17;95870.19;;;9.88;45.87
20860;BME280;10590;48.154;11.514;2023-12-28T19:09:40;95866.09;;;10.13;44.89
20860;BME280;10590;48.154;11.514;2023-12-28T19:15:02;95854.09;;;10.25;45.13
20860;BME280;10590;48.154;11.514;2023-12-28T19:20:24;95848.91;;;9.97;45.70
20860;BME280;10590;48.154;11.514;2023-12-28T19:25:48;95853.44;;;10.19;45.61
20860;BME280;10590;48.154;11.514;2023-12-28T19:31:10;95852.06;;;9.99;45.66
20860;BME280;10590;48.154;11.514;2023-12-28T19:36:32;95831.03;;;9.98;48.91
20860;BME280;10590;48.154;11.514;2023-12-28T19:41:55;95845.97;;;9.76;45.54
20860;BME280;10590;48.154;11.514;2023-12-28T19:47:16;95854.56;;;9.73;44.88
20860;BME280;10590;48.154;11.514;2023-12-28T19:52:39;95849.25;;;9.73;44.32
20860;BME280;10590;48.154;11.514;2023-12-28T19:58:04;95845.31;;;9.71;44.53
20860;BME280;10590;48.154;11.514;2023-12-28T20:03:25;95839.44;;;9.82;44.01
20860;BME280;10590;48.154;11.514;2023-12-28T20:08:47;95853.59;;;9.69;44.80
20860;BME280;10590;48.154;11.514;2023-12-28T20:14:10;95843.59;;;9.52;45.24
20860;BME280;10590;48.154;11.514;2023-12-28T20:19:32;95842.13;;;9.46;45.95
20860;BME280;10590;48.154;11.514;2023-12-28T20:24:55;95854.09;;;9.35;45.63
20860;BME280;10590;48.154;11.514;2023-12-28T20:30:18;95846.84;;;9.27;46.03
20860;BME280;10590;48.154;11.514;2023-12-28T20:35:40;95854.34;;;9.25;45.65
20860;BME280;10590;48.154;11.514;2023-12-28T20:41:01;95852.75;;;9.24;45.69
20860;BME280;10590;48.154;11.514;2023-12-28T20:46:31;95858.66;;;9.35;46.07
20860;BME280;10590;48.154;11.514;2023-12-28T20:51:52;95868.84;;;9.19;47.06
20860;BME280;10590;48.154;11.514;2023-12-28T20:57:15;95874.47;;;9.17;47.32
20860;BME280;10590;48.154;11.514;2023-12-28T21:02:38;95877.81;;;9.23;47.42
20860;BME280;10590;48.154;11.514;2023-12-28T21:07:59;95875.63;;;8.15;50.43
20860;BME280;10590;48.154;11.514;2023-12-28T21:13:21;95860.34;;;8.40;48.94
20860;BME280;10590;48.154;11.514;2023-12-28T21:18:44;95861.91;;;8.82;47.46
20860;BME280;10590;48.154;11.514;2023-12-28T21:24:06;95866.22;;;9.05;46.08
20860;BME280;10590;48.154;11.514;2023-12-28T21:29:28;95867.38;;;9.13;46.05
20860;BME280;10590;48.154;11.514;2023-12-28T21:34:51;95874.47;;;9.17;46.57
20860;BME280;10590;48.154;11.514;2023-12-28T21:40:13;95868.38;;;9.17;47.29
20860;BME280;10590;48.154;11.514;2023-12-28T21:45:35;95872.31;;;9.19;48.26
20860;BME280;10590;48.154;11.514;2023-12-28T21:50:58;95888.06;;;9.30;50.29
20860;BME280;10590;48.154;11.514;2023-12-28T21:56:20;95891.44;;;9.21;51.81
20860;BME280;10590;48.154;11.514;2023-12-28T22:01:42;95893.31;;;9.21;53.16
20860;BME280;10590;48.154;11.514;2023-12-28T22:07:06;95886.06;;;9.35;54.71
20860;BME280;10590;48.154;11.514;2023-12-28T22:12:27;95886.06;;;9.35;55.68
20860;BME280;10590;48.154;11.514;2023-12-28T22:17:49;95892.47;;;9.34;56.87
20860;BME280;10590;48.154;11.514;2023-12-28T22:23:12;95902.75;;;9.27;60.60
20860;BME280;10590;48.154;11.514;2023-12-28T22:28:33;95900.09;;;9.27;62.23
20860;BME280;10590;48.154;11.514;2023-12-28T22:33:55;95893.97;;;9.26;63.51
20860;BME280;10590;48.154;11.514;2023-12-28T22:39:18;95900.28;;;9.31;64.16
20860;BME280;10590;48.154;11.514;2023-12-28T22:44:40;95901.66;;;9.28;64.98
20860;BME280;10590;48.154;11.514;2023-12-28T22:50:02;95899.91;;;9.23;64.98
20860;BME280;10590;48.154;11.514;2023-12-28T22:55:25;95902.16;;;9.30;65.11
20860;BME280;10590;48.154;11.514;2023-12-28T23:00:47;95909.16;;;9.26;63.86
20860;BME280;10590;48.154;11.514;2023-12-28T23:06:08;95916.38;;;9.12;64.28
20860;BME280;10590;48.154;11.514;2023-12-28T23:11:31;95910.28;;;8.98;64.59
20860;BME280;10590;48.154;11.514;2023-12-28T23:16:53;95894.03;;;8.99;64.96
20860;BME280;10590;48.154;11.514;2023-12-28T23:22:14;95889.50;;;9.00;64.84
20860;BME280;10590;48.154;11.514;2023-12-28T23:27:37;95877.47;;;8.88;65.10
20860;BME280;10590;48.154;11.514;2023-12-28T23:32:59;95885.75;;;8.87;65.70
20860;BME280;10590;48.154;11.514;2023-12-28T23:38:21;95883.31;;;8.77;66.41
20860;BME280;10590;48.154;11.514;2023-12-28T23:43:44;95854.22;;;8.53;67.13
20860;BME280;10590;48.154;11.514;2023-12-28T23:49:06;95873.44;;;8.50;67.67
20860;BME280;10590;48.154;11.514;2023-12-28T23:54:27;95881.09;;;8.38;67.73
20860;BME280;10590;48.154;11.514;2023-12-28T23:59:50;95870.94;;;8.26;68.20
